sensor_id;sensor_type;location;lat;lon;timestamp;pressure;altitude;pressure_sealevel;temperature;humidity
78741;BME280;68062;48.726;9.370;2023-03-01T00:00:05;99482.22;;;0.94;67.77
78741;BME280;68062;48.726;9.370;2023-03-01T00:02:32;99505.84;;;0.77;68.69
78741;BME280;68062;48.726;9.370;2023-03-01T00:04:58;99501.97;;;0.83;68.60
78741;BME280;68062;48.726;9.370;2023-03-01T00:07:25;99499.03;;;1.10;67.25
78741;BME280;68062;48.726;9.370;2023-03-01T00:09:51;99514.44;;;1.33;66.33
78741;BME280;68062;48.726;9.370;2023-03-01T00:12:19;99502.34;;;1.45;65.05
78741;BME280;68062;48.726;9.370;2023-03-01T00:14:45;99508.56;;;1.34;65.50
78741;BME280;68062;48.726;9.370;2023-03-01T00:17:12;99509.78;;;1.42;65.69
78741;BME280;68062;48.726;9.370;2023-03-01T00:19:39;99504.22;;;1.50;64.84
78741;BME280;68062;48.726;9.370;2023-03-01T00:22:05;99496.13;;;1.39;65.60
78741;BME280;68062;48.726;9.370;2023-03-01T00:24:32;99503.59;;;1.36;66.50
78741;BME280;68062;48.726;9.370;2023-03-01T00:26:58;99503.84;;;0.87;66.93
78741;BME280;68062;48.726;9.370;2023-03-01T00:29:26;99500.06;;;0.79;68.74
78741;BME280;68062;48.726;9.370;2023-03-01T00:31:52;99510.25;;;1.15;67.32
78741;BME280;68062;48.726;9.370;2023-03-01T00:34:19;99512.72;;;1.32;66.18
78741;BME280;68062;48.726;9.370;2023-03-01T00:36:45;99500.63;;;1.26;66.85
78741;BME280;68062;48.726;9.370;2023-03-01T00:39:14;99491.75;;;0.82;68.35
78741;BME280;68062;48.726;9.370;2023-03-01T00:41:41;99463.97;;;0.83;67.72
78741;BME280;68062;48.726;9.370;2023-03-01T00:44:08;99498.28;;;0.60;68.75
78741;BME280;68062;48.726;9.370;2023-03-01T00:46:36;99497.91;;;0.87;68.04
78741;BME280;68062;48.726;9.370;2023-03-01T00:49:02;99486.41;;;0.59;68.32
78741;BME280;68062;48.726;9.370;2023-03-01T00:51:30;99488.25;;;0.80;68.56
78741;BME280;68062;48.726;9.370;2023-03-01T00:53:58;99494.16;;;0.97;68.46
78741;BME280;68062;48.726;9.370;2023-03-01T00:56:26;99495.19;;;0.66;68.61
78741;BME280;68062;48.726;9.370;2023-03-01T00:58:52;99493.00;;;0.90;68.76
78741;BME280;68062;48.726;9.370;2023-03-01T01:01:20;99488.50;;;1.02;67.94
78741;BME280;68062;48.726;9.370;2023-03-01T01:03:50;99491.50;;;1.12;67.93
78741;BME280;68062;48.726;9.370;2023-03-01T01:06:19;99480.06;;;1.02;67.94
78741;BME280;68062;48.726;9.370;2023-03-01T01:08:46;99492.56;;;0.99;67.82
78741;BME280;68062;48.726;9.370;2023-03-01T01:11:12;99484.38;;;1.05;67.75
78741;BME280;68062;48.726;9.370;2023-03-01T01:13:39;99482.66;;;1.03;67.03
78741;BME280;68062;48.726;9.370;2023-03-01T01:16:07;99491.94;;;1.03;67.02
78741;BME280;68062;48.726;9.370;2023-03-01T01:18:34;99478.31;;;1.01;66.76
78741;BME280;68062;48.726;9.370;2023-03-01T01:21:06;99478.22;;;0.99;65.85
78741;BME280;68062;48.726;9.370;2023-03-01T01:23:34;99476.28;;;0.94;66.87
78741;BME280;68062;48.726;9.370;2023-03-01T01:26:05;99466.72;;;0.88;68.30
78741;BME280;68062;48.726;9.370;2023-03-01T01:28:31;99465.63;;;0.83;68.30
78741;BME280;68062;48.726;9.370;2023-03-01T01:30:58;99463.44;;;0.38;69.75
78741;BME280;68062;48.726;9.370;2023-03-01T01:33:24;99465.50;;;0.28;68.80
78741;BME280;68062;48.726;9.370;2023-03-01T01:35:51;99467.41;;;0.16;70.26
78741;BME280;68062;48.726;9.370;2023-03-01T01:38:19;99430.91;;;0.46;69.95
78741;BME280;68062;48.726;9.370;2023-03-01T01:40:48;99455.97;;;0.57;70.21
78741;BME280;68062;48.726;9.370;2023-03-01T01:43:20;99442.88;;;0.48;69.98
78741;BME280;68062;48.726;9.370;2023-03-01T01:45:47;99457.66;;;0.75;70.12
78741;BME280;68062;48.726;9.370;2023-03-01T01:48:17;99452.66;;;0.58;70.74
78741;BME280;68062;48.726;9.370;2023-03-01T01:50:44;99455.06;;;0.73;69.13
78741;BME280;68062;48.726;9.370;2023-03-01T01:53:15;99445.13;;;0.60;69.80
78741;BME280;68062;48.726;9.370;2023-03-01T01:55:48;99451.66;;;0.91;69.25
78741;BME280;68062;48.726;9.370;2023-03-01T01:58:19;99449.00;;;1.06;68.63
78741;BME280;68062;48.726;9.370;2023-03-01T02:00:48;99448.28;;;1.09;68.74
78741;BME280;68062;48.726;9.370;2023-03-01T02:03:18;99433.53;;;1.00;68.74
78741;BME280;68062;48.726;9.370;2023-03-01T02:05:49;99436.63;;;1.12;68.72
78741;BME280;68062;48.726;9.370;2023-03-01T02:08:19;99438.72;;;1.21;68.28
78741;BME280;68062;48.726;9.370;2023-03-01T02:10:48;99436.47;;;1.27;68.26
78741;BME280;68062;48.726;9.370;2023-03-01T02:13:16;99430.13;;;1.37;68.15
78741;BME280;68062;48.726;9.370;2023-03-01T02:15:42;99427.69;;;1.39;67.54
78741;BME280;68062;48.726;9.370;2023-03-01T02:18:12;99417.88;;;1.46;68.15
78741;BME280;68062;48.726;9.370;2023-03-01T02:20:47;99424.16;;;1.17;68.49
78741;BME280;68062;48.726;9.370;2023-03-01T02:23:16;99414.13;;;1.38;68.02
78741;BME280;68062;48.726;9.370;2023-03-01T02:25:47;99410.94;;;1.42;68.17
78741;BME280;68062;48.726;9.370;2023-03-01T02:28:25;99408.75;;;1.12;69.08
78741;BME280;68062;48.726;9.370;2023-03-01T02:30:53;99379.03;;;1.08;68.42
78741;BME280;68062;48.726;9.370;2023-03-01T02:33:38;99403.75;;;1.14;69.14
78741;BME280;68062;48.726;9.370;2023-03-01T02:36:08;99404.72;;;1.36;67.92
78741;BME280;68062;48.726;9.370;2023-03-01T02:38:36;99395.31;;;1.33;67.94
78741;BME280;68062;48.726;9.370;2023-03-01T02:41:04;99394.88;;;1.42;67.67
78741;BME280;68062;48.726;9.370;2023-03-01T02:43:34;99388.53;;;1.52;67.07
78741;BME280;68062;48.726;9.370;2023-03-01T02:46:03;99371.97;;;1.40;67.60
78741;BME280;68062;48.726;9.370;2023-03-01T02:48:39;99398.69;;;1.32;69.07
78741;BME280;68062;48.726;9.370;2023-03-01T02:51:11;99386.88;;;1.52;67.61
78741;BME280;68062;48.726;9.370;2023-03-01T02:53:48;99386.94;;;1.54;67.78
78741;BME280;68062;48.726;9.370;2023-03-01T02:56:18;99383.72;;;1.58;67.47
78741;BME280;68062;48.726;9.370;2023-03-01T02:58:46;99379.41;;;1.75;66.43
78741;BME280;68062;48.726;9.370;2023-03-01T03:01:17;99387.16;;;1.78;65.88
78741;BME280;68062;48.726;9.370;2023-03-01T03:03:44;99379.06;;;1.67;66.66
78741;BME280;68062;48.726;9.370;2023-03-01T03:06:10;99372.75;;;1.77;65.72
78741;BME280;68062;48.726;9.370;2023-03-01T03:08:37;99373.88;;;1.84;65.21
78741;BME280;68062;48.726;9.370;2023-03-01T03:11:04;99377.19;;;1.63;66.76
78741;BME280;68062;48.726;9.370;2023-03-01T03:13:30;99371.81;;;1.75;66.04
78741;BME280;68062;48.726;9.370;2023-03-01T03:15:58;99364.91;;;1.72;65.94
78741;BME280;68062;48.726;9.370;2023-03-01T03:18:25;99367.13;;;1.84;64.95
78741;BME280;68062;48.726;9.370;2023-03-01T03:20:52;99367.31;;;1.89;64.72
78741;BME280;68062;48.726;9.370;2023-03-01T03:23:19;99361.69;;;1.96;64.53
78741;BME280;68062;48.726;9.370;2023-03-01T03:25:47;99343.63;;;1.88;64.78
78741;BME280;68062;48.726;9.370;2023-03-01T03:28:14;99362.31;;;1.90;65.21
78741;BME280;68062;48.726;9.370;2023-03-01T03:30:42;99354.44;;;1.84;64.54
78741;BME280;68062;48.726;9.370;2023-03-01T03:33:11;99331.94;;;1.72;64.90
78741;BME280;68062;48.726;9.370;2023-03-01T03:35:39;99362.72;;;1.80;65.21
78741;BME280;68062;48.726;9.370;2023-03-01T03:38:09;99354.84;;;1.94;65.01
78741;BME280;68062;48.726;9.370;2023-03-01T03:40:42;99357.69;;;2.01;64.34
78741;BME280;68062;48.726;9.370;2023-03-01T03:43:11;99356.22;;;2.06;64.32
78741;BME280;68062;48.726;9.370;2023-03-01T03:45:38;99355.41;;;2.08;64.25
78741;BME280;68062;48.726;9.370;2023-03-01T03:48:06;99357.94;;;2.08;64.51
78741;BME280;68062;48.726;9.370;2023-03-01T03:50:34;99351.22;;;2.08;63.98
78741;BME280;68062;48.726;9.370;2023-03-01T03:53:03;99358.31;;;1.96;64.42
78741;BME280;68062;48.726;9.370;2023-03-01T03:55:29;99360.47;;;2.08;64.02
78741;BME280;68062;48.726;9.370;2023-03-01T03:57:57;99350.88;;;2.00;64.61
78741;BME280;68062;48.726;9.370;2023-03-01T04:00:27;99344.41;;;2.07;64.40
78741;BME280;68062;48.726;9.370;2023-03-01T04:02:54;99341.06;;;2.08;64.68
78741;BME280;68062;48.726;9.370;2023-03-01T04:05:21;99344.47;;;2.09;64.06
78741;BME280;68062;48.726;9.370;2023-03-01T04:07:49;99345.38;;;2.11;64.01
78741;BME280;68062;48.726;9.370;2023-03-01T04:10:27;99337.78;;;2.11;64.29
78741;BME280;68062;48.726;9.370;2023-03-01T04:12:53;99338.69;;;2.13;64.33
78741;BME280;68062;48.726;9.370;2023-03-01T04:15:22;99307.16;;;1.06;67.63
78741;BME280;68062;48.726;9.370;2023-03-01T04:17:50;99327.69;;;1.71;66.14
78741;BME280;68062;48.726;9.370;2023-03-01T04:20:19;99330.44;;;1.97;65.70
78741;BME280;68062;48.726;9.370;2023-03-01T04:22:55;99321.00;;;1.73;65.52
78741;BME280;68062;48.726;9.370;2023-03-01T04:25:24;99300.47;;;1.47;66.48
78741;BME280;68062;48.726;9.370;2023-03-01T04:27:50;99329.47;;;1.94;65.81
78741;BME280;68062;48.726;9.370;2023-03-01T04:30:17;99328.16;;;2.03;65.05
78741;BME280;68062;48.726;9.370;2023-03-01T04:32:43;99321.38;;;2.02;64.89
78741;BME280;68062;48.726;9.370;2023-03-01T04:35:10;99330.28;;;2.14;64.51
78741;BME280;68062;48.726;9.370;2023-03-01T04:37:36;99328.50;;;2.11;64.75
78741;BME280;68062;48.726;9.370;2023-03-01T04:40:05;99323.44;;;2.11;64.81
78741;BME280;68062;48.726;9.370;2023-03-01T04:42:41;99316.53;;;2.09;65.02
78741;BME280;68062;48.726;9.370;2023-03-01T04:45:09;99313.16;;;2.08;64.89
78741;BME280;68062;48.726;9.370;2023-03-01T04:47:39;99302.06;;;2.06;64.47
78741;BME280;68062;48.726;9.370;2023-03-01T04:50:06;99306.53;;;2.12;64.68
78741;BME280;68062;48.726;9.370;2023-03-01T04:52:33;99320.47;;;2.22;64.93
78741;BME280;68062;48.726;9.370;2023-03-01T04:54:59;99328.06;;;2.22;64.67
78741;BME280;68062;48.726;9.370;2023-03-01T04:57:27;99321.19;;;2.19;65.17
78741;BME280;68062;48.726;9.370;2023-03-01T04:59:53;99328.63;;;2.14;64.99
78741;BME280;68062;48.726;9.370;2023-03-01T05:02:20;99317.47;;;2.11;65.57
78741;BME280;68062;48.726;9.370;2023-03-01T05:04:46;99312.53;;;2.14;64.99
78741;BME280;68062;48.726;9.370;2023-03-01T05:07:13;99312.44;;;1.91;65.86
78741;BME280;68062;48.726;9.370;2023-03-01T05:09:45;99318.03;;;2.03;65.89
78741;BME280;68062;48.726;9.370;2023-03-01T05:12:12;99319.00;;;1.66;67.12
78741;BME280;68062;48.726;9.370;2023-03-01T05:14:40;99322.19;;;1.82;66.59
78741;BME280;68062;48.726;9.370;2023-03-01T05:17:06;99311.78;;;1.75;66.30
78741;BME280;68062;48.726;9.370;2023-03-01T05:19:33;99305.91;;;1.76;66.03
78741;BME280;68062;48.726;9.370;2023-03-01T05:22:00;99302.25;;;1.89;65.85
78741;BME280;68062;48.726;9.370;2023-03-01T05:24:31;99317.53;;;1.52;67.09
78741;BME280;68062;48.726;9.370;2023-03-01T05:26:58;99319.53;;;1.59;66.89
78741;BME280;68062;48.726;9.370;2023-03-01T05:29:26;99313.00;;;1.64;66.65
78741;BME280;68062;48.726;9.370;2023-03-01T05:31:56;99323.38;;;1.49;67.20
78741;BME280;68062;48.726;9.370;2023-03-01T05:34:24;99319.53;;;1.79;66.62
78741;BME280;68062;48.726;9.370;2023-03-01T05:36:51;99301.75;;;1.57;66.73
78741;BME280;68062;48.726;9.370;2023-03-01T05:39:19;99314.22;;;1.13;68.01
78741;BME280;68062;48.726;9.370;2023-03-01T05:41:46;99321.78;;;1.51;67.06
78741;BME280;68062;48.726;9.370;2023-03-01T05:44:13;99325.28;;;1.74;67.09
78741;BME280;68062;48.726;9.370;2023-03-01T05:46:39;99319.13;;;1.89;65.87
78741;BME280;68062;48.726;9.370;2023-03-01T05:49:07;99315.22;;;1.76;66.68
78741;BME280;68062;48.726;9.370;2023-03-01T05:51:33;99308.03;;;1.66;66.83
78741;BME280;68062;48.726;9.370;2023-03-01T05:54:00;99306.06;;;1.80;66.66
78741;BME280;68062;48.726;9.370;2023-03-01T05:56:26;99302.94;;;1.66;66.25
78741;BME280;68062;48.726;9.370;2023-03-01T05:58:54;99307.53;;;1.55;67.75
78741;BME280;68062;48.726;9.370;2023-03-01T06:01:20;99309.69;;;1.45;67.87
78741;BME280;68062;48.726;9.370;2023-03-01T06:03:47;99308.03;;;1.66;66.96
78741;BME280;68062;48.726;9.370;2023-03-01T06:06:15;99310.19;;;1.77;66.14
78741;BME280;68062;48.726;9.370;2023-03-01T06:08:41;99307.50;;;1.94;66.06
78741;BME280;68062;48.726;9.370;2023-03-01T06:11:07;99310.25;;;1.99;65.45
78741;BME280;68062;48.726;9.370;2023-03-01T06:13:34;99290.41;;;1.49;66.62
78741;BME280;68062;48.726;9.370;2023-03-01T06:16:00;99282.31;;;1.58;66.44
78741;BME280;68062;48.726;9.370;2023-03-01T06:18:27;99301.81;;;1.59;66.63
78741;BME280;68062;48.726;9.370;2023-03-01T06:20:54;99298.41;;;1.39;67.32
78741;BME280;68062;48.726;9.370;2023-03-01T06:23:22;99307.22;;;1.67;66.85
78741;BME280;68062;48.726;9.370;2023-03-01T06:25:48;99297.75;;;1.84;66.08
78741;BME280;68062;48.726;9.370;2023-03-01T06:28:16;99305.28;;;1.61;66.87
78741;BME280;68062;48.726;9.370;2023-03-01T06:30:43;99292.84;;;1.67;66.34
78741;BME280;68062;48.726;9.370;2023-03-01T06:33:09;99302.41;;;1.94;65.82
78741;BME280;68062;48.726;9.370;2023-03-01T06:35:36;99310.47;;;1.44;66.94
78741;BME280;68062;48.726;9.370;2023-03-01T06:38:04;99309.59;;;1.83;66.20
78741;BME280;68062;48.726;9.370;2023-03-01T06:40:32;99306.38;;;1.87;66.42
78741;BME280;68062;48.726;9.370;2023-03-01T06:43:01;99313.09;;;1.66;66.80
78741;BME280;68062;48.726;9.370;2023-03-01T06:45:27;99303.25;;;1.73;66.80
78741;BME280;68062;48.726;9.370;2023-03-01T06:48:01;99309.38;;;1.79;65.91
78741;BME280;68062;48.726;9.370;2023-03-01T06:50:27;99312.19;;;1.85;66.59
78741;BME280;68062;48.726;9.370;2023-03-01T06:52:56;99307.31;;;1.89;65.86
78741;BME280;68062;48.726;9.370;2023-03-01T06:55:23;99301.09;;;1.83;66.10
78741;BME280;68062;48.726;9.370;2023-03-01T06:57:55;99299.06;;;1.74;65.97
78741;BME280;68062;48.726;9.370;2023-03-01T07:00:22;99307.56;;;1.96;65.62
78741;BME280;68062;48.726;9.370;2023-03-01T07:02:49;99310.53;;;1.85;65.52
78741;BME280;68062;48.726;9.370;2023-03-01T07:05:16;99299.94;;;1.55;66.38
78741;BME280;68062;48.726;9.370;2023-03-01T07:07:45;99281.91;;;1.68;66.10
78741;BME280;68062;48.726;9.370;2023-03-01T07:10:12;99306.50;;;1.90;65.33
78741;BME280;68062;48.726;9.370;2023-03-01T07:12:38;99295.47;;;1.69;66.07
78741;BME280;68062;48.726;9.370;2023-03-01T07:15:09;99296.16;;;1.86;66.27
78741;BME280;68062;48.726;9.370;2023-03-01T07:17:40;99306.56;;;1.92;65.47
78741;BME280;68062;48.726;9.370;2023-03-01T07:20:07;99291.81;;;2.03;65.95
78741;BME280;68062;48.726;9.370;2023-03-01T07:22:34;99299.53;;;2.06;65.24
78741;BME280;68062;48.726;9.370;2023-03-01T07:25:00;99292.09;;;1.89;65.65
78741;BME280;68062;48.726;9.370;2023-03-01T07:27:26;99296.00;;;2.02;66.22
78741;BME280;68062;48.726;9.370;2023-03-01T07:29:53;99286.16;;;2.10;65.59
78741;BME280;68062;48.726;9.370;2023-03-01T07:32:21;99276.81;;;2.09;65.42
78741;BME280;68062;48.726;9.370;2023-03-01T07:34:47;99288.75;;;1.90;65.87
78741;BME280;68062;48.726;9.370;2023-03-01T07:37:14;99289.44;;;2.08;65.66
78741;BME280;68062;48.726;9.370;2023-03-01T07:39:40;99281.03;;;1.87;66.15
78741;BME280;68062;48.726;9.370;2023-03-01T07:42:07;99274.97;;;2.05;65.54
78741;BME280;68062;48.726;9.370;2023-03-01T07:44:33;99277.56;;;1.25;67.49
78741;BME280;68062;48.726;9.370;2023-03-01T07:47:00;99277.56;;;1.25;68.32
78741;BME280;68062;48.726;9.370;2023-03-01T07:49:28;99273.59;;;1.12;68.31
78741;BME280;68062;48.726;9.370;2023-03-01T07:51:54;99270.31;;;1.54;67.76
78741;BME280;68062;48.726;9.370;2023-03-01T07:54:21;99261.19;;;1.38;67.68
78741;BME280;68062;48.726;9.370;2023-03-01T07:56:47;99270.03;;;1.67;67.75
78741;BME280;68062;48.726;9.370;2023-03-01T07:59:14;99267.06;;;1.77;67.28
78741;BME280;68062;48.726;9.370;2023-03-01T08:01:40;99253.88;;;1.65;67.13
78741;BME280;68062;48.726;9.370;2023-03-01T08:04:08;99260.47;;;1.81;66.88
78741;BME280;68062;48.726;9.370;2023-03-01T08:06:36;99269.56;;;1.97;66.04
78741;BME280;68062;48.726;9.370;2023-03-01T08:09:02;99260.03;;;2.13;65.86
78741;BME280;68062;48.726;9.370;2023-03-01T08:11:29;99261.16;;;1.98;66.47
78741;BME280;68062;48.726;9.370;2023-03-01T08:13:55;99265.00;;;2.31;65.70
78741;BME280;68062;48.726;9.370;2023-03-01T08:16:22;99256.38;;;2.48;64.93
78741;BME280;68062;48.726;9.370;2023-03-01T08:18:49;99264.47;;;2.40;64.91
78741;BME280;68062;48.726;9.370;2023-03-01T08:21:16;99259.16;;;1.70;66.92
78741;BME280;68062;48.726;9.370;2023-03-01T08:23:45;99262.56;;;2.13;66.15
78741;BME280;68062;48.726;9.370;2023-03-01T08:26:13;99266.47;;;2.04;65.98
78741;BME280;68062;48.726;9.370;2023-03-01T08:28:41;99251.91;;;2.43;65.04
78741;BME280;68062;48.726;9.370;2023-03-01T08:31:16;99259.59;;;2.23;65.23
78741;BME280;68062;48.726;9.370;2023-03-01T08:33:43;99231.88;;;2.06;64.77
78741;BME280;68062;48.726;9.370;2023-03-01T08:36:10;99254.19;;;2.58;64.66
78741;BME280;68062;48.726;9.370;2023-03-01T08:38:36;99249.78;;;2.54;64.15
78741;BME280;68062;48.726;9.370;2023-03-01T08:41:04;99249.75;;;2.10;64.68
78741;BME280;68062;48.726;9.370;2023-03-01T08:43:31;99250.81;;;2.36;64.33
78741;BME280;68062;48.726;9.370;2023-03-01T08:45:57;99252.22;;;2.50;63.42
78741;BME280;68062;48.726;9.370;2023-03-01T08:48:24;99244.53;;;2.72;62.58
78741;BME280;68062;48.726;9.370;2023-03-01T08:50:50;99238.06;;;2.80;62.73
78741;BME280;68062;48.726;9.370;2023-03-01T08:53:17;99244.53;;;2.96;62.41
78741;BME280;68062;48.726;9.370;2023-03-01T08:55:43;99240.34;;;3.21;61.62
78741;BME280;68062;48.726;9.370;2023-03-01T08:58:11;99238.94;;;3.29;61.06
78741;BME280;68062;48.726;9.370;2023-03-01T09:00:38;99230.84;;;3.15;61.22
78741;BME280;68062;48.726;9.370;2023-03-01T09:03:05;99218.78;;;3.09;61.23
78741;BME280;68062;48.726;9.370;2023-03-01T09:05:32;99209.81;;;3.19;61.28
78741;BME280;68062;48.726;9.370;2023-03-01T09:07:59;99225.22;;;3.48;60.33
78741;BME280;68062;48.726;9.370;2023-03-01T09:10:25;99203.31;;;3.28;60.16
78741;BME280;68062;48.726;9.370;2023-03-01T09:12:52;99208.84;;;3.66;59.47
78741;BME280;68062;48.726;9.370;2023-03-01T09:15:20;99187.66;;;3.41;59.86
78741;BME280;68062;48.726;9.370;2023-03-01T09:17:46;99186.94;;;2.72;60.77
78741;BME280;68062;48.726;9.370;2023-03-01T09:20:13;99164.00;;;2.93;60.83
78741;BME280;68062;48.726;9.370;2023-03-01T09:22:39;99202.81;;;3.14;61.27
78741;BME280;68062;48.726;9.370;2023-03-01T09:25:06;99200.28;;;3.38;60.05
78741;BME280;68062;48.726;9.370;2023-03-01T09:27:33;99197.91;;;3.18;60.57
78741;BME280;68062;48.726;9.370;2023-03-01T09:30:00;99187.59;;;3.39;60.24
78741;BME280;68062;48.726;9.370;2023-03-01T09:32:29;99187.16;;;3.51;59.67
78741;BME280;68062;48.726;9.370;2023-03-01T09:34:56;99199.00;;;3.51;59.94
78741;BME280;68062;48.726;9.370;2023-03-01T09:37:30;99195.44;;;3.46;59.96
78741;BME280;68062;48.726;9.370;2023-03-01T09:39:56;99189.53;;;3.47;59.98
78741;BME280;68062;48.726;9.370;2023-03-01T09:42:23;99192.25;;;3.51;60.06
78741;BME280;68062;48.726;9.370;2023-03-01T09:44:53;99187.50;;;3.62;59.40
78741;BME280;68062;48.726;9.370;2023-03-01T09:47:24;99192.78;;;3.43;61.08
78741;BME280;68062;48.726;9.370;2023-03-01T09:49:59;99181.97;;;3.74;60.96
78741;BME280;68062;48.726;9.370;2023-03-01T09:52:33;99139.69;;;3.52;59.46
78741;BME280;68062;48.726;9.370;2023-03-01T09:55:00;99171.94;;;3.53;59.30
78741;BME280;68062;48.726;9.370;2023-03-01T09:57:33;99169.25;;;3.74;59.13
78741;BME280;68062;48.726;9.370;2023-03-01T10:00:15;99181.56;;;3.89;59.18
78741;BME280;68062;48.726;9.370;2023-03-01T10:02:45;99169.75;;;4.19;58.58
78741;BME280;68062;48.726;9.370;2023-03-01T10:05:25;99170.09;;;4.30;58.04
78741;BME280;68062;48.726;9.370;2023-03-01T10:08:02;99160.25;;;4.13;57.68
78741;BME280;68062;48.726;9.370;2023-03-01T10:10:34;99154.28;;;4.12;58.25
78741;BME280;68062;48.726;9.370;2023-03-01T10:13:08;99154.53;;;4.20;57.93
78741;BME280;68062;48.726;9.370;2023-03-01T10:15:42;99146.72;;;4.16;58.31
78741;BME280;68062;48.726;9.370;2023-03-01T10:18:12;99139.34;;;4.23;58.63
78741;BME280;68062;48.726;9.370;2023-03-01T10:20:48;99121.72;;;4.31;58.23
78741;BME280;68062;48.726;9.370;2023-03-01T10:23:18;99133.16;;;4.44;58.31
78741;BME280;68062;48.726;9.370;2023-03-01T10:25:54;99134.22;;;4.52;57.22
78741;BME280;68062;48.726;9.370;2023-03-01T10:28:30;99126.19;;;4.69;56.46
78741;BME280;68062;48.726;9.370;2023-03-01T10:30:57;99122.84;;;4.71;55.99
78741;BME280;68062;48.726;9.370;2023-03-01T10:33:28;99125.75;;;4.84;56.48
78741;BME280;68062;48.726;9.370;2023-03-01T10:35:56;99117.47;;;4.61;56.64
78741;BME280;68062;48.726;9.370;2023-03-01T10:38:23;99116.19;;;4.75;56.85
78741;BME280;68062;48.726;9.370;2023-03-01T10:40:52;99112.00;;;4.79;56.65
78741;BME280;68062;48.726;9.370;2023-03-01T10:43:20;99105.03;;;4.71;55.97
78741;BME280;68062;48.726;9.370;2023-03-01T10:45:47;99119.75;;;4.82;56.20
78741;BME280;68062;48.726;9.370;2023-03-01T10:48:16;99109.94;;;4.96;55.90
78741;BME280;68062;48.726;9.370;2023-03-01T10:50:45;99111.53;;;4.92;55.72
78741;BME280;68062;48.726;9.370;2023-03-01T10:53:25;99105.91;;;5.04;56.74
78741;BME280;68062;48.726;9.370;2023-03-01T10:56:00;99106.22;;;5.18;55.00
78741;BME280;68062;48.726;9.370;2023-03-01T10:58:28;99095.72;;;5.06;55.48
78741;BME280;68062;48.726;9.370;2023-03-01T11:00:56;99088.47;;;5.21;56.11
78741;BME280;68062;48.726;9.370;2023-03-01T11:03:24;99080.03;;;5.24;55.43
78741;BME280;68062;48.726;9.370;2023-03-01T11:05:57;99082.91;;;5.38;54.70
78741;BME280;68062;48.726;9.370;2023-03-01T11:08:37;99092.06;;;5.29;55.65
78741;BME280;68062;48.726;9.370;2023-03-01T11:11:06;99078.47;;;5.29;55.64
78741;BME280;68062;48.726;9.370;2023-03-01T11:13:33;99075.97;;;5.32;54.64
78741;BME280;68062;48.726;9.370;2023-03-01T11:16:03;99064.03;;;5.31;55.61
78741;BME280;68062;48.726;9.370;2023-03-01T11:18:31;99064.00;;;5.29;55.63
78741;BME280;68062;48.726;9.370;2023-03-01T11:20:59;99069.84;;;5.24;54.93
78741;BME280;68062;48.726;9.370;2023-03-01T11:23:29;99062.47;;;5.36;55.80
78741;BME280;68062;48.726;9.370;2023-03-01T11:26:00;99063.03;;;5.24;55.52
78741;BME280;68062;48.726;9.370;2023-03-01T11:28:29;99047.88;;;5.29;54.55
78741;BME280;68062;48.726;9.370;2023-03-01T11:31:00;99017.28;;;5.30;54.71
78741;BME280;68062;48.726;9.370;2023-03-01T11:33:34;99037.53;;;5.61;55.39
78741;BME280;68062;48.726;9.370;2023-03-01T11:36:07;99037.00;;;5.76;54.07
78741;BME280;68062;48.726;9.370;2023-03-01T11:38:41;99036.53;;;5.94;53.29
78741;BME280;68062;48.726;9.370;2023-03-01T11:41:14;99014.19;;;5.82;53.40
78741;BME280;68062;48.726;9.370;2023-03-01T11:43:50;99031.16;;;5.82;53.92
78741;BME280;68062;48.726;9.370;2023-03-01T11:46:38;99020.31;;;5.92;53.07
78741;BME280;68062;48.726;9.370;2023-03-01T11:49:25;99018.78;;;5.99;53.37
78741;BME280;68062;48.726;9.370;2023-03-01T11:52:03;99014.78;;;6.10;53.13
78741;BME280;68062;48.726;9.370;2023-03-01T11:54:44;99013.22;;;5.77;53.03
78741;BME280;68062;48.726;9.370;2023-03-01T11:57:36;98999.56;;;5.77;54.09
78741;BME280;68062;48.726;9.370;2023-03-01T12:00:32;98999.75;;;5.84;54.95
78741;BME280;68062;48.726;9.370;2023-03-01T12:06:20;98998.31;;;5.97;54.10
78741;BME280;68062;48.726;9.370;2023-03-01T12:08:56;98984.50;;;6.29;53.35
78741;BME280;68062;48.726;9.370;2023-03-01T12:11:38;98979.28;;;6.23;53.02
78741;BME280;68062;48.726;9.370;2023-03-01T12:14:24;98971.13;;;6.44;52.97
78741;BME280;68062;48.726;9.370;2023-03-01T12:20:00;98962.94;;;6.62;52.88
78741;BME280;68062;48.726;9.370;2023-03-01T12:22:30;98955.44;;;6.73;52.09
78741;BME280;68062;48.726;9.370;2023-03-01T12:25:13;98944.03;;;6.52;52.10
78741;BME280;68062;48.726;9.370;2023-03-01T12:30:42;98944.44;;;6.78;52.49
78741;BME280;68062;48.726;9.370;2023-03-01T12:33:22;98941.31;;;6.94;52.05
78741;BME280;68062;48.726;9.370;2023-03-01T12:39:00;98914.56;;;6.73;52.09
78741;BME280;68062;48.726;9.370;2023-03-01T12:41:43;98920.16;;;7.05;51.96
78741;BME280;68062;48.726;9.370;2023-03-01T12:44:24;98916.66;;;7.00;52.21
78741;BME280;68062;48.726;9.370;2023-03-01T12:47:05;98916.72;;;7.02;52.30
78741;BME280;68062;48.726;9.370;2023-03-01T12:49:35;98906.75;;;7.22;52.28
78741;BME280;68062;48.726;9.370;2023-03-01T12:52:11;98900.66;;;7.14;51.50
78741;BME280;68062;48.726;9.370;2023-03-01T12:54:40;98894.03;;;7.27;51.79
78741;BME280;68062;48.726;9.370;2023-03-01T12:57:12;98888.38;;;7.49;50.96
78741;BME280;68062;48.726;9.370;2023-03-01T12:59:47;98894.53;;;7.65;51.46
78741;BME280;68062;48.726;9.370;2023-03-01T13:02:23;98898.72;;;7.60;50.89
78741;BME280;68062;48.726;9.370;2023-03-01T13:05:02;98882.28;;;7.43;50.79
78741;BME280;68062;48.726;9.370;2023-03-01T13:07:39;98883.16;;;7.45;51.40
78741;BME280;68062;48.726;9.370;2023-03-01T13:10:17;98883.22;;;7.46;51.07
78741;BME280;68062;48.726;9.370;2023-03-01T13:13:01;98876.41;;;7.48;51.46
78741;BME280;68062;48.726;9.370;2023-03-01T13:15:31;98888.63;;;7.71;51.41
78741;BME280;68062;48.726;9.370;2023-03-01T13:18:00;98881.69;;;7.62;50.41
78741;BME280;68062;48.726;9.370;2023-03-01T13:20:31;98881.03;;;7.79;50.28
78741;BME280;68062;48.726;9.370;2023-03-01T13:23:06;98881.19;;;7.96;50.73
78741;BME280;68062;48.726;9.370;2023-03-01T13:25:33;98878.00;;;8.19;49.73
78741;BME280;68062;48.726;9.370;2023-03-01T13:28:41;98882.19;;;8.09;49.79
78741;BME280;68062;48.726;9.370;2023-03-01T13:31:09;98879.31;;;7.78;50.10
78741;BME280;68062;48.726;9.370;2023-03-01T13:33:44;98874.25;;;7.83;49.60